sensor_id;sensor_type;location;lat;lon;timestamp;temperature;humidity
15844;DHT22;50807;52.436;13.346;2023-05-16T00:00:21;18.60;86.10
15844;DHT22;50807;52.436;13.346;2023-05-16T00:00:57;18.60;86.10
15844;DHT22;50807;52.436;13.346;2023-05-16T00:01:28;18.60;86.20
15844;DHT22;50807;52.436;13.346;2023-05-16T00:01:59;18.60;86.20
15844;DHT22;50807;52.436;13.346;2023-05-16T00:02:32;18.60;86.20
15844;DHT22;50807;52.436;13.346;2023-05-16T00:03:04;18.60;86.20
15844;DHT22;50807;52.436;13.346;2023-05-16T00:03:36;18.60;86.30
15844;DHT22;50807;52.436;13.346;2023-05-16T00:04:08;18.60;86.30
15844;DHT22;50807;52.436;13.346;2023-05-16T00:04:42;18.60;86.30
15844;DHT22;50807;52.436;13.346;2023-05-16T00:05:13;18.60;86.50
15844;DHT22;50807;52.436;13.346;2023-05-16T00:05:46;18.50;86.30
15844;DHT22;50807;52.436;13.346;2023-05-16T00:06:18;18.60;87.20
15844;DHT22;50807;52.436;13.346;2023-05-16T00:06:49;18.60;86.50
15844;DHT22;50807;52.436;13.346;2023-05-16T00:07:19;18.60;86.50
15844;DHT22;50807;52.436;13.346;2023-05-16T00:07:51;18.50;86.50
15844;DHT22;50807;52.436;13.346;2023-05-16T00:08:22;18.50;86.60
15844;DHT22;50807;52.436;13.346;2023-05-16T00:08:53;18.50;86.60
15844;DHT22;50807;52.436;13.346;2023-05-16T00:09:25;18.50;86.70
15844;DHT22;50807;52.436;13.346;2023-05-16T00:09:56;18.50;86.70
15844;DHT22;50807;52.436;13.346;2023-05-16T00:10:27;18.50;86.90
15844;DHT22;50807;52.436;13.346;2023-05-16T00:10:58;18.50;86.80
15844;DHT22;50807;52.436;13.346;2023-05-16T00:11:29;18.50;86.90
15844;DHT22;50807;52.436;13.346;2023-05-16T00:12:00;18.50;87.00
15844;DHT22;50807;52.436;13.346;2023-05-16T00:12:31;18.50;87.00
15844;DHT22;50807;52.436;13.346;2023-05-16T00:13:03;18.50;87.00
15844;DHT22;50807;52.436;13.346;2023-05-16T00:13:34;18.50;87.10
15844;DHT22;50807;52.436;13.346;2023-05-16T00:14:05;18.50;87.20
15844;DHT22;50807;52.436;13.346;2023-05-16T00:14:37;18.50;87.20
15844;DHT22;50807;52.436;13.346;2023-05-16T00:15:10;18.50;87.20
15844;DHT22;50807;52.436;13.346;2023-05-16T00:15:43;18.50;87.40
15844;DHT22;50807;52.436;13.346;2023-05-16T00:16:15;18.50;87.30
15844;DHT22;50807;52.436;13.346;2023-05-16T00:16:46;18.50;87.40
15844;DHT22;50807;52.436;13.346;2023-05-16T00:17:18;18.50;87.40
15844;DHT22;50807;52.436;13.346;2023-05-16T00:17:50;18.50;87.50
15844;DHT22;50807;52.436;13.346;2023-05-16T00:18:21;18.50;87.50
15844;DHT22;50807;52.436;13.346;2023-05-16T00:18:52;18.50;87.60
15844;DHT22;50807;52.436;13.346;2023-05-16T00:19:29;18.50;87.60
15844;DHT22;50807;52.436;13.346;2023-05-16T00:20:00;18.50;87.60
15844;DHT22;50807;52.436;13.346;2023-05-16T00:20:40;18.50;87.70
15844;DHT22;50807;52.436;13.346;2023-05-16T00:21:13;18.50;87.70
15844;DHT22;50807;52.436;13.346;2023-05-16T00:21:44;18.50;87.70
15844;DHT22;50807;52.436;13.346;2023-05-16T00:22:15;18.50;87.70
15844;DHT22;50807;52.436;13.346;2023-05-16T00:22:47;18.50;87.70
15844;DHT22;50807;52.436;13.346;2023-05-16T00:23:17;18.50;87.80
15844;DHT22;50807;52.436;13.346;2023-05-16T00:23:48;18.50;87.80
15844;DHT22;50807;52.436;13.346;2023-05-16T00:24:19;18.50;88.50
15844;DHT22;50807;52.436;13.346;2023-05-16T00:24:53;18.50;87.90
15844;DHT22;50807;52.436;13.346;2023-05-16T00:25:24;18.50;87.90
15844;DHT22;50807;52.436;13.346;2023-05-16T00:25:55;18.50;88.00
15844;DHT22;50807;52.436;13.346;2023-05-16T00:26:26;18.50;88.00
15844;DHT22;50807;52.436;13.346;2023-05-16T00:26:57;18.50;88.00
15844;DHT22;50807;52.436;13.346;2023-05-16T00:27:28;18.50;88.10
15844;DHT22;50807;52.436;13.346;2023-05-16T00:27:59;18.50;88.10
15844;DHT22;50807;52.436;13.346;2023-05-16T00:28:31;18.50;88.10
15844;DHT22;50807;52.436;13.346;2023-05-16T00:29:02;18.40;88.10
15844;DHT22;50807;52.436;13.346;2023-05-16T00:29:33;18.50;88.20
15844;DHT22;50807;52.436;13.346;2023-05-16T00:30:08;18.40;88.20
15844;DHT22;50807;52.436;13.346;2023-05-16T00:30:39;18.40;88.30
15844;DHT22;50807;52.436;13.346;2023-05-16T00:31:10;18.40;88.20
15844;DHT22;50807;52.436;13.346;2023-05-16T00:31:44;18.40;88.30
15844;DHT22;50807;52.436;13.346;2023-05-16T00:32:20;18.40;88.40
15844;DHT22;50807;52.436;13.346;2023-05-16T00:32:50;18.40;88.50
15844;DHT22;50807;52.436;13.346;2023-05-16T00:33:22;18.50;88.50
15844;DHT22;50807;52.436;13.346;2023-05-16T00:33:53;18.50;88.50
15844;DHT22;50807;52.436;13.346;2023-05-16T00:34:24;18.50;88.50
15844;DHT22;50807;52.436;13.346;2023-05-16T00:34:56;18.40;88.60
15844;DHT22;50807;52.436;13.346;2023-05-16T00:35:27;18.40;88.60
15844;DHT22;50807;52.436;13.346;2023-05-16T00:35:58;18.40;88.70
15844;DHT22;50807;52.436;13.346;2023-05-16T00:36:31;18.40;88.80
15844;DHT22;50807;52.436;13.346;2023-05-16T00:37:02;18.40;89.50
15844;DHT22;50807;52.436;13.346;2023-05-16T00:37:33;18.40;88.90
15844;DHT22;50807;52.436;13.346;2023-05-16T00:38:05;18.40;88.90
15844;DHT22;50807;52.436;13.346;2023-05-16T00:38:38;18.40;88.90
15844;DHT22;50807;52.436;13.346;2023-05-16T00:39:09;18.40;89.00
15844;DHT22;50807;52.436;13.346;2023-05-16T00:39:42;18.50;89.00
15844;DHT22;50807;52.436;13.346;2023-05-16T00:40:13;18.40;89.00
15844;DHT22;50807;52.436;13.346;2023-05-16T00:40:44;18.40;89.00
15844;DHT22;50807;52.436;13.346;2023-05-16T00:41:16;18.50;89.10
15844;DHT22;50807;52.436;13.346;2023-05-16T00:41:48;18.40;89.20
15844;DHT22;50807;52.436;13.346;2023-05-16T00:42:22;18.40;89.20
15844;DHT22;50807;52.436;13.346;2023-05-16T00:42:52;18.40;89.30
15844;DHT22;50807;52.436;13.346;2023-05-16T00:43:24;18.40;89.30
15844;DHT22;50807;52.436;13.346;2023-05-16T00:43:55;18.40;89.20
15844;DHT22;50807;52.436;13.346;2023-05-16T00:44:26;18.40;89.20
15844;DHT22;50807;52.436;13.346;2023-05-16T00:44:59;18.40;89.30
15844;DHT22;50807;52.436;13.346;2023-05-16T00:45:30;18.40;89.40
15844;DHT22;50807;52.436;13.346;2023-05-16T00:46:01;18.40;89.40
15844;DHT22;50807;52.436;13.346;2023-05-16T00:46:35;18.40;89.50
15844;DHT22;50807;52.436;13.346;2023-05-16T00:47:06;18.40;89.50
15844;DHT22;50807;52.436;13.346;2023-05-16T00:47:37;18.40;90.10
15844;DHT22;50807;52.436;13.346;2023-05-16T00:48:11;18.40;89.70
15844;DHT22;50807;52.436;13.346;2023-05-16T00:48:42;18.40;89.80
15844;DHT22;50807;52.436;13.346;2023-05-16T00:49:13;18.40;89.70
15844;DHT22;50807;52.436;13.346;2023-05-16T00:49:45;18.40;89.80
15844;DHT22;50807;52.436;13.346;2023-05-16T00:50:16;18.40;89.80
15844;DHT22;50807;52.436;13.346;2023-05-16T00:50:47;18.40;90.00
15844;DHT22;50807;52.436;13.346;2023-05-16T00:51:19;18.40;90.00
15844;DHT22;50807;52.436;13.346;2023-05-16T00:51:52;18.40;90.00
15844;DHT22;50807;52.436;13.346;2023-05-16T00:52:23;18.40;90.00
15844;DHT22;50807;52.436;13.346;2023-05-16T00:52:56;18.40;90.00
15844;DHT22;50807;52.436;13.346;2023-05-16T00:53:27;18.30;90.00
15844;DHT22;50807;52.436;13.346;2023-05-16T00:53:58;18.30;90.00
15844;DHT22;50807;52.436;13.346;2023-05-16T00:54:30;18.40;90.10
15844;DHT22;50807;52.436;13.346;2023-05-16T00:55:02;18.30;90.10
15844;DHT22;50807;52.436;13.346;2023-05-16T00:55:33;18.30;90.10
15844;DHT22;50807;52.436;13.346;2023-05-16T00:56:05;18.30;90.10
15844;DHT22;50807;52.436;13.346;2023-05-16T00:56:36;18.30;90.10
15844;DHT22;50807;52.436;13.346;2023-05-16T00:57:08;18.30;90.10
15844;DHT22;50807;52.436;13.346;2023-05-16T00:57:41;18.30;90.20
15844;DHT22;50807;52.436;13.346;2023-05-16T00:58:13;18.30;90.20
15844;DHT22;50807;52.436;13.346;2023-05-16T00:58:45;18.30;90.30
15844;DHT22;50807;52.436;13.346;2023-05-16T00:59:17;18.30;90.30
15844;DHT22;50807;52.436;13.346;2023-05-16T00:59:48;18.30;90.30
15844;DHT22;50807;52.436;13.346;2023-05-16T01:00:19;18.30;90.30
15844;DHT22;50807;52.436;13.346;2023-05-16T01:00:52;18.30;90.30
15844;DHT22;50807;52.436;13.346;2023-05-16T01:01:24;18.30;90.30
15844;DHT22;50807;52.436;13.346;2023-05-16T01:01:57;18.30;90.40
15844;DHT22;50807;52.436;13.346;2023-05-16T01:02:28;18.30;90.40
15844;DHT22;50807;52.436;13.346;2023-05-16T01:03:00;18.30;90.70
15844;DHT22;50807;52.436;13.346;2023-05-16T01:03:31;18.30;90.40
15844;DHT22;50807;52.436;13.346;2023-05-16T01:04:04;18.30;90.40
15844;DHT22;50807;52.436;13.346;2023-05-16T01:04:36;18.30;90.50
15844;DHT22;50807;52.436;13.346;2023-05-16T01:05:07;18.30;90.50
15844;DHT22;50807;52.436;13.346;2023-05-16T01:05:39;18.30;90.50
15844;DHT22;50807;52.436;13.346;2023-05-16T01:06:11;18.30;90.50
15844;DHT22;50807;52.436;13.346;2023-05-16T01:06:42;18.20;90.50
15844;DHT22;50807;52.436;13.346;2023-05-16T01:07:16;18.20;90.60
15844;DHT22;50807;52.436;13.346;2023-05-16T01:07:47;18.30;90.60
15844;DHT22;50807;52.436;13.346;2023-05-16T01:08:18;18.30;90.60
15844;DHT22;50807;52.436;13.346;2023-05-16T01:08:51;18.20;90.60
15844;DHT22;50807;52.436;13.346;2023-05-16T01:09:22;18.20;90.60
15844;DHT22;50807;52.436;13.346;2023-05-16T01:09:53;18.20;90.60
15844;DHT22;50807;52.436;13.346;2023-05-16T01:10:30;18.20;90.70
15844;DHT22;50807;52.436;13.346;2023-05-16T01:11:11;18.20;90.70
15844;DHT22;50807;52.436;13.346;2023-05-16T01:11:52;18.20;90.70
15844;DHT22;50807;52.436;13.346;2023-05-16T01:12:36;18.30;90.70
15844;DHT22;50807;52.436;13.346;2023-05-16T01:13:16;18.20;90.70
15844;DHT22;50807;52.436;13.346;2023-05-16T01:14:02;18.20;90.70
15844;DHT22;50807;52.436;13.346;2023-05-16T01:14:50;18.20;90.70
15844;DHT22;50807;52.436;13.346;2023-05-16T01:15:29;18.30;90.70
15844;DHT22;50807;52.436;13.346;2023-05-16T01:16:20;18.30;90.60
15844;DHT22;50807;52.436;13.346;2023-05-16T01:17:04;18.30;90.60
15844;DHT22;50807;52.436;13.346;2023-05-16T01:17:47;18.20;90.60
15844;DHT22;50807;52.436;13.346;2023-05-16T01:18:29;18.20;90.60
15844;DHT22;50807;52.436;13.346;2023-05-16T01:19:18;18.30;90.60
15844;DHT22;50807;52.436;13.346;2023-05-16T01:20:04;18.30;90.60
15844;DHT22;50807;52.436;13.346;2023-05-16T01:20:44;18.30;90.60
15844;DHT22;50807;52.436;13.346;2023-05-16T01:21:29;18.20;90.60
15844;DHT22;50807;52.436;13.346;2023-05-16T01:22:19;18.20;90.60
15844;DHT22;50807;52.436;13.346;2023-05-16T01:23:10;18.20;90.60
15844;DHT22;50807;52.436;13.346;2023-05-16T01:23:54;18.20;90.60
15844;DHT22;50807;52.436;13.346;2023-05-16T01:24:42;18.20;90.60
15844;DHT22;50807;52.436;13.346;2023-05-16T01:25:31;18.20;90.60
15844;DHT22;50807;52.436;13.346;2023-05-16T01:26:18;18.20;90.60
15844;DHT22;50807;52.436;13.346;2023-05-16T01:26:51;18.20;90.50
15844;DHT22;50807;52.436;13.346;2023-05-16T01:27:26;18.20;90.50
15844;DHT22;50807;52.436;13.346;2023-05-16T01:28:01;18.20;90.60
15844;DHT22;50807;52.436;13.346;2023-05-16T01:28:33;18.20;90.60
15844;DHT22;50807;52.436;13.346;2023-05-16T01:29:06;18.10;90.60
15844;DHT22;50807;52.436;13.346;2023-05-16T01:29:38;18.10;90.60
15844;DHT22;50807;52.436;13.346;2023-05-16T01:30:15;18.10;90.60
15844;DHT22;50807;52.436;13.346;2023-05-16T01:30:47;18.10;90.70
15844;DHT22;50807;52.436;13.346;2023-05-16T01:31:21;18.10;90.70
15844;DHT22;50807;52.436;13.346;2023-05-16T01:31:54;18.10;90.80
15844;DHT22;50807;52.436;13.346;2023-05-16T01:32:24;18.10;90.80
15844;DHT22;50807;52.436;13.346;2023-05-16T01:32:55;18.00;90.80
15844;DHT22;50807;52.436;13.346;2023-05-16T01:33:26;18.00;90.80
15844;DHT22;50807;52.436;13.346;2023-05-16T01:33:58;18.00;90.90
15844;DHT22;50807;52.436;13.346;2023-05-16T01:34:29;18.00;90.90
15844;DHT22;50807;52.436;13.346;2023-05-16T01:34:59;18.00;91.00
15844;DHT22;50807;52.436;13.346;2023-05-16T01:35:32;18.00;91.00
15844;DHT22;50807;52.436;13.346;2023-05-16T01:36:12;18.00;91.00
15844;DHT22;50807;52.436;13.346;2023-05-16T01:36:57;18.00;91.10
15844;DHT22;50807;52.436;13.346;2023-05-16T01:37:40;18.00;91.10
15844;DHT22;50807;52.436;13.346;2023-05-16T01:38:24;18.00;91.00
15844;DHT22;50807;52.436;13.346;2023-05-16T01:39:01;18.00;91.00
15844;DHT22;50807;52.436;13.346;2023-05-16T01:39:53;18.00;91.00
15844;DHT22;50807;52.436;13.346;2023-05-16T01:40:34;17.90;91.00
15844;DHT22;50807;52.436;13.346;2023-05-16T01:41:15;17.90;90.90
15844;DHT22;50807;52.436;13.346;2023-05-16T01:41:56;17.90;90.90
15844;DHT22;50807;52.436;13.346;2023-05-16T01:42:36;17.90;90.90
15844;DHT22;50807;52.436;13.346;2023-05-16T01:43:14;17.90;90.80
15844;DHT22;50807;52.436;13.346;2023-05-16T01:43:56;18.00;90.90
15844;DHT22;50807;52.436;13.346;2023-05-16T01:44:34;17.90;90.90
15844;DHT22;50807;52.436;13.346;2023-05-16T01:45:14;17.90;90.90
15844;DHT22;50807;52.436;13.346;2023-05-16T01:45:55;17.90;90.90
15844;DHT22;50807;52.436;13.346;2023-05-16T01:46:43;17.90;90.90
15844;DHT22;50807;52.436;13.346;2023-05-16T01:47:18;17.90;90.90
15844;DHT22;50807;52.436;13.346;2023-05-16T01:47:57;17.90;90.90
15844;DHT22;50807;52.436;13.346;2023-05-16T01:48:37;17.90;90.90
15844;DHT22;50807;52.436;13.346;2023-05-16T01:49:19;17.80;90.80
15844;DHT22;50807;52.436;13.346;2023-05-16T01:50:00;17.80;90.90
15844;DHT22;50807;52.436;13.346;2023-05-16T01:50:41;17.80;90.80
15844;DHT22;50807;52.436;13.346;2023-05-16T01:51:19;17.80;90.90
15844;DHT22;50807;52.436;13.346;2023-05-16T01:51:56;17.80;90.90
15844;DHT22;50807;52.436;13.346;2023-05-16T01:52:35;17.80;90.90
15844;DHT22;50807;52.436;13.346;2023-05-16T01:53:16;17.80;90.90
15844;DHT22;50807;52.436;13.346;2023-05-16T01:53:51;17.80;90.90
15844;DHT22;50807;52.436;13.346;2023-05-16T01:54:30;17.70;90.80
15844;DHT22;50807;52.436;13.346;2023-05-16T01:55:03;17.70;90.80
15844;DHT22;50807;52.436;13.346;2023-05-16T01:55:44;17.70;90.80
15844;DHT22;50807;52.436;13.346;2023-05-16T01:56:18;17.70;90.80
15844;DHT22;50807;52.436;13.346;2023-05-16T01:56:53;17.70;90.80
15844;DHT22;50807;52.436;13.346;2023-05-16T01:57:26;17.70;90.90
15844;DHT22;50807;52.436;13.346;2023-05-16T01:58:02;17.70;90.90
15844;DHT22;50807;52.436;13.346;2023-05-16T01:58:35;17.60;90.90
15844;DHT22;50807;52.436;13.346;2023-05-16T01:59:07;17.70;90.90
15844;DHT22;50807;52.436;13.346;2023-05-16T01:59:40;17.60;90.90
15844;DHT22;50807;52.436;13.346;2023-05-16T02:00:13;17.60;90.90
15844;DHT22;50807;52.436;13.346;2023-05-16T02:00:44;17.60;90.90
15844;DHT22;50807;52.436;13.346;2023-05-16T02:01:15;17.60;90.90
15844;DHT22;50807;52.436;13.346;2023-05-16T02:01:47;17.60;90.90
15844;DHT22;50807;52.436;13.346;2023-05-16T02:02:18;17.60;91.00
15844;DHT22;50807;52.436;13.346;2023-05-16T02:02:50;17.60;91.00
15844;DHT22;50807;52.436;13.346;2023-05-16T02:03:21;17.50;91.00
15844;DHT22;50807;52.436;13.346;2023-05-16T02:03:52;17.50;91.00
15844;DHT22;50807;52.436;13.346;2023-05-16T02:04:23;17.50;91.00
15844;DHT22;50807;52.436;13.346;2023-05-16T02:04:55;17.50;91.10
15844;DHT22;50807;52.436;13.346;2023-05-16T02:05:26;17.50;91.10
15844;DHT22;50807;52.436;13.346;2023-05-16T02:05:57;17.50;91.10
15844;DHT22;50807;52.436;13.346;2023-05-16T02:06:29;17.50;91.10
15844;DHT22;50807;52.436;13.346;2023-05-16T02:07:00;17.50;91.10
15844;DHT22;50807;52.436;13.346;2023-05-16T02:07:37;17.50;91.10
15844;DHT22;50807;52.436;13.346;2023-05-16T02:08:10;17.50;91.10
15844;DHT22;50807;52.436;13.346;2023-05-16T02:08:41;17.50;91.10
15844;DHT22;50807;52.436;13.346;2023-05-16T02:09:12;17.50;91.40
15844;DHT22;50807;52.436;13.346;2023-05-16T02:09:44;17.50;91.10
15844;DHT22;50807;52.436;13.346;2023-05-16T02:10:15;17.50;91.00
15844;DHT22;50807;52.436;13.346;2023-05-16T02:10:46;17.50;91.00
15844;DHT22;50807;52.436;13.346;2023-05-16T02:11:19;17.50;91.00
15844;DHT22;50807;52.436;13.346;2023-05-16T02:11:51;17.40;91.00
15844;DHT22;50807;52.436;13.346;2023-05-16T02:12:23;17.40;91.00
15844;DHT22;50807;52.436;13.346;2023-05-16T02:12:55;17.40;91.00
15844;DHT22;50807;52.436;13.346;2023-05-16T02:13:26;17.40;91.00
15844;DHT22;50807;52.436;13.346;2023-05-16T02:13:57;17.50;90.90
15844;DHT22;50807;52.436;13.346;2023-05-16T02:14:28;17.40;90.90
15844;DHT22;50807;52.436;13.346;2023-05-16T02:15:00;17.40;90.90
15844;DHT22;50807;52.436;13.346;2023-05-16T02:15:30;17.50;90.90
15844;DHT22;50807;52.436;13.346;2023-05-16T02:16:01;17.40;90.90
15844;DHT22;50807;52.436;13.346;2023-05-16T02:16:33;17.40;91.00
15844;DHT22;50807;52.436;13.346;2023-05-16T02:17:08;17.40;91.00
15844;DHT22;50807;52.436;13.346;2023-05-16T02:17:39;17.40;90.90
15844;DHT22;50807;52.436;13.346;2023-05-16T02:18:11;17.40;90.90
15844;DHT22;50807;52.436;13.346;2023-05-16T02:18:42;17.40;90.90
15844;DHT22;50807;52.436;13.346;2023-05-16T02:19:15;17.40;91.00
15844;DHT22;50807;52.436;13.346;2023-05-16T02:19:46;17.40;91.00
15844;DHT22;50807;52.436;13.346;2023-05-16T02:20:17;17.40;91.00
15844;DHT22;50807;52.436;13.346;2023-05-16T02:20:49;17.40;91.00
15844;DHT22;50807;52.436;13.346;2023-05-16T02:21:20;17.40;91.00
15844;DHT22;50807;52.436;13.346;2023-05-16T02:21:51;17.40;91.00
15844;DHT22;50807;52.436;13.346;2023-05-16T02:22:25;17.40;91.00
15844;DHT22;50807;52.436;13.346;2023-05-16T02:22:56;17.40;91.10
15844;DHT22;50807;52.436;13.346;2023-05-16T02:23:28;17.40;91.10
15844;DHT22;50807;52.436;13.346;2023-05-16T02:23:59;17.40;91.10
15844;DHT22;50807;52.436;13.346;2023-05-16T02:24:30;17.40;91.00
15844;DHT22;50807;52.436;13.346;2023-05-16T02:25:02;17.40;91.10
15844;DHT22;50807;52.436;13.346;2023-05-16T02:25:33;17.40;91.10
15844;DHT22;50807;52.436;13.346;2023-05-16T02:26:04;17.40;91.10
15844;DHT22;50807;52.436;13.346;2023-05-16T02:26:38;17.40;91.00
15844;DHT22;50807;52.436;13.346;2023-05-16T02:27:08;17.40;91.00
15844;DHT22;50807;52.436;13.346;2023-05-16T02:27:39;17.40;91.00
15844;DHT22;50807;52.436;13.346;2023-05-16T02:28:12;17.40;91.00
15844;DHT22;50807;52.436;13.346;2023-05-16T02:28:43;17.40;91.00
15844;DHT22;50807;52.436;13.346;2023-05-16T02:29:14;17.40;91.00
15844;DHT22;50807;52.436;13.346;2023-05-16T02:29:46;17.40;91.00
15844;DHT22;50807;52.436;13.346;2023-05-16T02:30:17;17.40;91.00
15844;DHT22;50807;52.436;13.346;2023-05-16T02:30:55;17.40;91.00
15844;DHT22;50807;52.436;13.346;2023-05-16T02:31:31;17.40;91.10
15844;DHT22;50807;52.436;13.346;2023-05-16T02:32:03;17.40;91.00
15844;DHT22;50807;52.436;13.346;2023-05-16T02:32:35;17.40;91.00
15844;DHT22;50807;52.436;13.346;2023-05-16T02:33:07;17.40;91.00
15844;DHT22;50807;52.436;13.346;2023-05-16T02:33:38;17.40;90.90
15844;DHT22;50807;52.436;13.346;2023-05-16T02:34:09;17.40;90.90
15844;DHT22;50807;52.436;13.346;2023-05-16T02:34:41;17.40;91.00
15844;DHT22;50807;52.436;13.346;2023-05-16T02:35:12;17.40;91.00
15844;DHT22;50807;52.436;13.346;2023-05-16T02:35:44;17.40;91.00
15844;DHT22;50807;52.436;13.346;2023-05-16T02:36:16;17.40;91.00
15844;DHT22;50807;52.436;13.346;2023-05-16T02:36:47;17.40;90.90
15844;DHT22;50807;52.436;13.346;2023-05-16T02:37:18;17.40;91.00
15844;DHT22;50807;52.436;13.346;2023-05-16T02:37:50;17.40;91.00
15844;DHT22;50807;52.436;13.346;2023-05-16T02:38:20;17.40;91.00
15844;DHT22;50807;52.436;13.346;2023-05-16T02:38:51;17.40;91.00
15844;DHT22;50807;52.436;13.346;2023-05-16T02:39:23;17.40;91.00
15844;DHT22;50807;52.436;13.346;2023-05-16T02:39:54;17.40;91.00
15844;DHT22;50807;52.436;13.346;2023-05-16T02:40:25;17.40;91.00
15844;DHT22;50807;52.436;13.346;2023-05-16T02:40:57;17.40;91.00
15844;DHT22;50807;52.436;13.346;2023-05-16T02:41:28;17.40;91.00
15844;DHT22;50807;52.436;13.346;2023-05-16T02:42:00;17.40;91.10
15844;DHT22;50807;52.436;13.346;2023-05-16T02:42:31;17.40;91.00
15844;DHT22;50807;52.436;13.346;2023-05-16T02:43:03;17.40;91.10
15844;DHT22;50807;52.436;13.346;2023-05-16T02:43:35;17.40;91.10
15844;DHT22;50807;52.436;13.346;2023-05-16T02:44:09;17.40;91.10
15844;DHT22;50807;52.436;13.346;2023-05-16T02:44:40;17.40;91.10
15844;DHT22;50807;52.436;13.346;2023-05-16T02:45:12;17.40;91.10
15844;DHT22;50807;52.436;13.346;2023-05-16T02:45:46;17.40;91.10
15844;DHT22;50807;52.436;13.346;2023-05-16T02:46:23;17.40;91.10
15844;DHT22;50807;52.436;13.346;2023-05-16T02:46:55;17.40;91.20
15844;DHT22;50807;52.436;13.346;2023-05-16T02:47:26;17.40;91.10
15844;DHT22;50807;52.436;13.346;2023-05-16T02:47:58;17.40;91.10
15844;DHT22;50807;52.436;13.346;2023-05-16T02:48:29;17.40;91.10
15844;DHT22;50807;52.436;13.346;2023-05-16T02:49:01;17.40;91.00
15844;DHT22;50807;52.436;13.346;2023-05-16T02:49:33;17.40;91.00
15844;DHT22;50807;52.436;13.346;2023-05-16T02:50:04;17.40;91.00
15844;DHT22;50807;52.436;13.346;2023-05-16T02:50:36;17.40;91.10
15844;DHT22;50807;52.436;13.346;2023-05-16T02:51:09;17.40;91.10
15844;DHT22;50807;52.436;13.346;2023-05-16T02:51:40;17.40;91.10
15844;DHT22;50807;52.436;13.346;2023-05-16T02:52:11;17.40;91.40
15844;DHT22;50807;52.436;13.346;2023-05-16T02:52:43;17.40;91.00
15844;DHT22;50807;52.436;13.346;2023-05-16T02:53:13;17.40;91.10
15844;DHT22;50807;52.436;13.346;2023-05-16T02:53:44;17.40;91.00
15844;DHT22;50807;52.436;13.346;2023-05-16T02:54:15;17.40;91.10
15844;DHT22;50807;52.436;13.346;2023-05-16T02:54:48;17.40;91.10
15844;DHT22;50807;52.436;13.346;2023-05-16T02:55:19;17.40;91.00
15844;DHT22;50807;52.436;13.346;2023-05-16T02:55:50;17.40;91.00
15844;DHT22;50807;52.436;13.346;2023-05-16T02:56:22;17.40;91.00
15844;DHT22;50807;52.436;13.346;2023-05-16T02:56:53;17.40;91.00
15844;DHT22;50807;52.436;13.346;2023-05-16T02:57:25;17.40;91.00
15844;DHT22;50807;52.436;13.346;2023-05-16T02:57:57;17.40;91.10
15844;DHT22;50807;52.436;13.346;2023-05-16T02:58:28;17.40;91.00
15844;DHT22;50807;52.436;13.346;2023-05-16T02:58:59;17.40;91.00
15844;DHT22;50807;52.436;13.346;2023-05-16T02:59:30;17.40;91.00
15844;DHT22;50807;52.436;13.346;2023-05-16T03:00:02;17.40;91.10
15844;DHT22;50807;52.436;13.346;2023-05-16T03:00:35;17.40;91.10
15844;DHT22;50807;52.436;13.346;2023-05-16T03:01:06;17.40;91.00
15844;DHT22;50807;52.436;13.346;2023-05-16T03:01:38;17.40;91.10
15844;DHT22;50807;52.436;13.346;2023-05-16T03:02:09;17.40;91.00
15844;DHT22;50807;52.436;13.346;2023-05-16T03:02:40;17.40;91.00
15844;DHT22;50807;52.436;13.346;2023-05-16T03:03:13;17.40;91.00
15844;DHT22;50807;52.436;13.346;2023-05-16T03:03:44;17.30;91.00
15844;DHT22;50807;52.436;13.346;2023-05-16T03:04:18;17.30;91.00
15844;DHT22;50807;52.436;13.346;2023-05-16T03:04:48;17.40;91.10
15844;DHT22;50807;52.436;13.346;2023-05-16T03:05:20;17.40;91.00
15844;DHT22;50807;52.436;13.346;2023-05-16T03:05:53;17.30;91.00
15844;DHT22;50807;52.436;13.346;2023-05-16T03:06:24;17.30;90.90
15844;DHT22;50807;52.436;13.346;2023-05-16T03:06:56;17.30;90.90
15844;DHT22;50807;52.436;13.346;2023-05-16T03:07:27;17.30;91.00
15844;DHT22;50807;52.436;13.346;2023-05-16T03:08:00;17.30;91.00
15844;DHT22;50807;52.436;13.346;2023-05-16T03:08:32;17.30;90.90
15844;DHT22;50807;52.436;13.346;2023-05-16T03:09:04;17.30;91.00
15844;DHT22;50807;52.436;13.346;2023-05-16T03:09:35;17.30;91.00
15844;DHT22;50807;52.436;13.346;2023-05-16T03:10:08;17.30;91.00
15844;DHT22;50807;52.436;13.346;2023-05-16T03:10:39;17.30;91.10
15844;DHT22;50807;52.436;13.346;2023-05-16T03:11:10;17.30;91.00
15844;DHT22;50807;52.436;13.346;2023-05-16T03:11:41;17.30;91.00
15844;DHT22;50807;52.436;13.346;2023-05-16T03:12:14;17.30;91.00
15844;DHT22;50807;52.436;13.346;2023-05-16T03:12:50;17.30;91.00
15844;DHT22;50807;52.436;13.346;2023-05-16T03:13:22;17.30;91.00
15844;DHT22;50807;52.436;13.346;2023-05-16T03:13:53;17.30;91.00
15844;DHT22;50807;52.436;13.346;2023-05-16T03:14:25;17.30;91.00
15844;DHT22;50807;52.436;13.346;2023-05-16T03:14:56;17.30;90.90
15844;DHT22;50807;52.436;13.346;2023-05-16T03:15:27;17.30;91.00
15844;DHT22;50807;52.436;13.346;2023-05-16T03:16:00;17.30;91.00
15844;DHT22;50807;52.436;13.346;2023-05-16T03:16:31;17.30;91.00
15844;DHT22;50807;52.436;13.346;2023-05-16T03:17:02;17.30;91.00
15844;DHT22;50807;52.436;13.346;2023-05-16T03:17:34;17.30;91.00
15844;DHT22;50807;52.436;13.346;2023-05-16T03:18:05;17.30;91.00
15844;DHT22;50807;52.436;13.346;2023-05-16T03:18:36;17.30;91.00
15844;DHT22;50807;52.436;13.346;2023-05-16T03:19:08;17.30;91.00
15844;DHT22;50807;52.436;13.346;2023-05-16T03:19:39;17.30;91.00
15844;DHT22;50807;52.436;13.346;2023-05-16T03:20:11;17.30;91.00
15844;DHT22;50807;52.436;13.346;2023-05-16T03:20:43;17.30;91.10
15844;DHT22;50807;52.436;13.346;2023-05-16T03:21:14;17.30;91.00
15844;DHT22;50807;52.436;13.346;2023-05-16T03:21:45;17.30;91.00
15844;DHT22;50807;52.436;13.346;2023-05-16T03:22:16;17.30;91.00
15844;DHT22;50807;52.436;13.346;2023-05-16T03:22:47;17.30;91.00
15844;DHT22;50807;52.436;13.346;2023-05-16T03:23:18;17.30;91.00
15844;DHT22;50807;52.436;13.346;2023-05-16T03:23:50;17.30;91.10
15844;DHT22;50807;52.436;13.346;2023-05-16T03:24:21;17.30;91.00
15844;DHT22;50807;52.436;13.346;2023-05-16T03:24:52;17.30;91.10
15844;DHT22;50807;52.436;13.346;2023-05-16T03:25:24;17.30;91.10
15844;DHT22;50807;52.436;13.346;2023-05-16T03:25:55;17.30;91.10
15844;DHT22;50807;52.436;13.346;2023-05-16T03:26:27;17.30;91.10
15844;DHT22;50807;52.436;13.346;2023-05-16T03:26:59;17.30;91.00